Auburndale, Florida
Current Conditions -  °F | °C
As of 2:53 PM on Thursday 30 Oct 2014 (Local Time) from KGIF Reporting Station
Broken Clouds Broken Clouds  
Wind Chill: 83°   Ceiling: 5000
Heat Index: 84°   Visibility: 10mi
Dew Point: 64°   Wind: 5mph
Humidity: 53%   Direction: 360°N
Pressure: 29.92"   Gusts: NA
Location:  28.06°N, 81.78°W
Report Text: KGIF 301853Z AUTO 36004KT 10SM SCT043 BKN050 BKN060 28/18 A2992 RMK AO2 SLP129 T02830178
Loading
Personal Weather Stations






























Interactive Weather Map
Tropical Storm Tracking
New forecast layout! Learn more

10-Day Weather Forecast

Advertisements
Track Severe Weather on mobile